Time;durP1;ratioP1;P1;durP2;ratioP2;P2;SDS_P1;SDS_P2;PMS_P1;PMS_P2;Temp;Humidity;BMP_temperature;BMP_pressure;BME280_temperature;BME280_humidity;BME280_pressure;Samples;Min_cycle;Max_cycle;Signal;HPM_P1;HPM_P2
2021/09/02 00:00:22;;;;;;;9.00;4.80;;;;;;;12.07;77.95;100979.56;95267;1180;98031;-64
2021/09/02 00:02:40;;;;;;;7.10;4.30;;;;;;;12.01;78.08;100977.02;95254;1180;87743;-64
2021/09/02 00:04:48;;;;;;;7.60;4.50;;;;;;;11.93;78.10;100974.73;95237;1180;94611;-61
2021/09/02 00:07:00;;;;;;;7.90;4.90;;;;;;;11.88;78.17;100976.65;95246;1180;81982;-61
2021/09/02 00:09:07;;;;;;;7.50;4.20;;;;;;;11.82;78.31;100979.83;95212;1180;82702;-61
2021/09/02 00:11:18;;;;;;;8.00;4.50;;;;;;;11.79;78.33;100979.52;95254;1180;97765;-61
2021/09/02 00:13:25;;;;;;;7.70;4.40;;;;;;;11.74;78.34;100976.85;95295;1180;86566;-62
2021/09/02 00:15:33;;;;;;;8.00;4.50;;;;;;;11.69;78.52;100975.76;95247;1180;94566;-62
2021/09/02 00:17:41;;;;;;;7.70;4.50;;;;;;;11.66;78.51;100972.14;95302;1180;81159;-63
2021/09/02 00:19:49;;;;;;;9.50;4.50;;;;;;;11.59;78.62;100976.61;95267;1180;81625;-65
2021/09/02 00:21:56;;;;;;;7.10;3.90;;;;;;;11.59;78.64;100979.34;95200;1180;99538;-65
2021/09/02 00:24:05;;;;;;;8.00;4.50;;;;;;;11.57;78.75;100988.39;95214;1180;87999;-65
2021/09/02 00:26:13;;;;;;;7.20;4.90;;;;;;;11.56;78.77;100982.46;95289;1180;94237;-61
2021/09/02 00:28:22;;;;;;;8.70;5.00;;;;;;;11.47;79.02;100986.92;95218;1180;79095;-62
2021/09/02 00:30:33;;;;;;;10.10;5.40;;;;;;;11.40;79.04;100989.41;95265;1180;82015;-62
2021/09/02 00:32:41;;;;;;;10.00;5.20;;;;;;;11.39;79.23;100988.46;95278;1180;98946;-61
2021/09/02 00:34:48;;;;;;;9.00;5.20;;;;;;;11.38;79.21;100986.95;95263;1180;86856;-61
2021/09/02 00:36:56;;;;;;;9.20;5.10;;;;;;;11.31;79.43;100987.20;95258;1180;93662;-60
2021/09/02 00:39:04;;;;;;;8.70;5.20;;;;;;;11.29;79.50;100988.00;95122;1181;79438;-61
2021/09/02 00:41:11;;;;;;;8.10;4.70;;;;;;;11.21;79.53;100989.84;95238;1180;79390;-61
2021/09/02 00:43:19;;;;;;;8.20;4.70;;;;;;;11.15;79.64;100992.89;95271;1180;97457;-64
2021/09/02 00:45:26;;;;;;;8.10;4.80;;;;;;;11.10;79.68;100995.08;95262;1180;86647;-66
2021/09/02 00:47:34;;;;;;;7.20;4.40;;;;;;;11.09;79.77;100990.50;95253;1180;93483;-65
2021/09/02 00:49:43;;;;;;;7.60;4.80;;;;;;;11.03;79.89;100989.78;95259;1180;79285;-66
2021/09/02 00:51:54;;;;;;;8.20;4.70;;;;;;;10.99;79.99;100989.71;95275;1180;80540;-67
2021/09/02 00:54:01;;;;;;;6.80;4.00;;;;;;;10.95;79.95;100982.77;95219;1180;98780;-62
2021/09/02 00:56:09;;;;;;;8.40;4.30;;;;;;;10.90;80.07;100979.41;95260;1180;88085;-63
2021/09/02 00:58:18;;;;;;;8.30;5.20;;;;;;;10.88;80.05;100973.30;95295;1180;94409;-65
2021/09/02 01:00:26;;;;;;;10.30;5.30;;;;;;;10.85;80.26;100972.28;95239;1180;78530;-65
2021/09/02 01:02:34;;;;;;;7.90;4.50;;;;;;;10.84;80.38;100976.17;95257;1180;81423;-66
2021/09/02 01:04:42;;;;;;;8.40;4.70;;;;;;;10.87;80.42;100979.02;95258;1180;99512;-65
2021/09/02 01:06:51;;;;;;;9.40;5.00;;;;;;;10.92;80.51;100985.48;95275;1180;86922;-66
2021/09/02 01:08:59;;;;;;;8.00;4.90;;;;;;;10.93;80.52;100984.70;95259;1180;94388;-60
2021/09/02 01:11:06;;;;;;;9.10;5.40;;;;;;;10.88;80.59;100991.95;95284;1180;78453;-61
2021/09/02 01:13:14;;;;;;;8.40;5.10;;;;;;;10.83;80.67;100991.44;95306;1180;81471;-64
2021/09/02 01:15:27;;;;;;;8.20;5.00;;;;;;;10.80;80.72;100993.89;95231;1180;97686;-65
2021/09/02 01:17:36;;;;;;;9.00;4.70;;;;;;;10.75;80.80;100995.64;95292;1181;87661;-66
2021/09/02 01:19:49;;;;;;;9.90;4.90;;;;;;;10.70;80.94;100995.42;95222;1180;94300;-65
2021/09/02 01:21:57;;;;;;;9.40;4.50;;;;;;;10.69;80.99;100995.64;95224;1180;80463;-65
2021/09/02 01:24:08;;;;;;;8.00;5.30;;;;;;;10.66;81.06;100998.58;95245;1180;80643;-65
2021/09/02 01:26:23;;;;;;;9.40;4.80;;;;;;;10.62;81.16;100999.23;95276;1180;98889;-65
2021/09/02 01:28:34;;;;;;;8.70;4.80;;;;;;;10.59;81.25;100998.68;95259;1180;87070;-64
2021/09/02 01:30:43;;;;;;;8.20;4.70;;;;;;;10.60;81.27;100999.67;95253;1180;92994;-65
2021/09/02 01:32:53;;;;;;;9.90;4.80;;;;;;;10.56;81.30;101001.92;95262;1180;80817;-65
2021/09/02 01:35:08;;;;;;;7.70;4.50;;;;;;;10.52;81.43;100997.49;95197;1181;81985;-66
2021/09/02 01:37:15;;;;;;;8.20;4.80;;;;;;;10.48;81.60;100996.77;95263;1180;98678;-64
2021/09/02 01:39:23;;;;;;;9.10;4.60;;;;;;;10.46;81.70;100995.55;95259;1180;88308;-64
2021/09/02 01:41:31;;;;;;;7.90;4.70;;;;;;;10.43;81.74;100991.55;95264;1180;94131;-65
2021/09/02 01:43:39;;;;;;;8.20;4.70;;;;;;;10.42;81.69;100995.30;95246;1180;80776;-65
2021/09/02 01:45:47;;;;;;;8.80;4.80;;;;;;;10.38;81.70;100999.36;95233;1180;80576;-66
2021/09/02 01:48:01;;;;;;;8.90;4.80;;;;;;;10.37;81.73;100999.83;95277;1180;98026;-63
2021/09/02 01:50:13;;;;;;;9.30;4.80;;;;;;;10.36;81.81;100999.94;95303;1180;88402;-64
2021/09/02 01:52:22;;;;;;;7.40;4.40;;;;;;;10.32;81.96;100996.45;95225;1180;94304;-65
2021/09/02 01:54:30;;;;;;;8.10;5.00;;;;;;;10.28;81.93;100994.02;95164;1180;78520;-61
2021/09/02 01:56:38;;;;;;;10.20;4.80;;;;;;;10.25;81.97;100994.48;95266;1180;81474;-60
2021/09/02 01:58:45;;;;;;;10.80;4.70;;;;;;;10.22;82.00;100992.35;95243;1180;100744;-61
2021/09/02 02:00:53;;;;;;;10.10;4.30;;;;;;;10.21;82.12;100995.73;95252;1180;85793;-62
2021/09/02 02:03:00;;;;;;;7.00;4.70;;;;;;;10.19;82.13;100996.39;95255;1180;93942;-66
2021/09/02 02:05:11;;;;;;;12.10;5.40;;;;;;;10.20;82.14;101000.69;95252;1180;78587;-66
2021/09/02 02:07:18;;;;;;;10.80;5.20;;;;;;;10.17;82.26;100998.70;95267;1180;82168;-64
2021/09/02 02:09:26;;;;;;;7.70;4.50;;;;;;;10.14;82.33;100998.67;95214;1180;97038;-66
2021/09/02 02:11:37;;;;;;;8.70;4.70;;;;;;;10.12;82.28;101002.48;95265;1180;86966;-68
2021/09/02 02:13:44;;;;;;;11.00;5.60;;;;;;;10.11;82.49;100998.77;95253;1180;94342;-63
2021/09/02 02:15:52;;;;;;;10.00;5.20;;;;;;;10.07;82.48;101003.27;95208;1180;77935;-65
2021/09/02 02:18:00;;;;;;;7.20;4.60;;;;;;;10.03;82.59;101012.05;95309;1180;82025;-63
2021/09/02 02:20:11;;;;;;;8.40;4.70;;;;;;;10.02;82.52;101009.64;95277;1180;98893;-62
2021/09/02 02:22:19;;;;;;;8.20;4.40;;;;;;;9.97;82.62;101007.69;95260;1180;87349;-64
2021/09/02 02:24:27;;;;;;;7.70;4.70;;;;;;;9.93;82.69;101007.41;95254;1180;92809;-65
2021/09/02 02:26:34;;;;;;;10.90;4.60;;;;;;;9.92;82.67;101005.15;95254;1180;81035;-66
2021/09/02 02:28:42;;;;;;;7.90;4.80;;;;;;;9.94;82.74;101002.21;95248;1180;81999;-68
2021/09/02 02:30:49;;;;;;;10.40;5.60;;;;;;;9.95;82.84;101001.27;95256;1180;98702;-66
2021/09/02 02:32:57;;;;;;;8.60;5.10;;;;;;;9.97;82.82;101001.00;95304;1180;86669;-65
2021/09/02 02:35:10;;;;;;;9.90;5.10;;;;;;;9.99;82.74;101007.77;95291;1180;95366;-63
2021/09/02 02:37:18;;;;;;;13.00;5.10;;;;;;;9.95;82.79;101007.54;95288;1180;81233;-63
2021/09/02 02:39:26;;;;;;;7.10;4.30;;;;;;;9.94;82.84;101006.64;95248;1180;80615;-61
2021/09/02 02:41:34;;;;;;;8.10;5.10;;;;;;;9.93;82.92;101006.37;95268;1180;97285;-63
2021/09/02 02:43:42;;;;;;;9.70;5.40;;;;;;;9.92;82.87;101003.70;95285;1180;87117;-61
2021/09/02 02:45:50;;;;;;;8.70;4.70;;;;;;;9.91;82.82;100996.66;95184;1180;94027;-60
2021/09/02 02:47:57;;;;;;;9.50;4.60;;;;;;;9.89;82.90;100991.45;95226;1180;81411;-63
2021/09/02 02:50:07;;;;;;;8.80;4.50;;;;;;;9.88;82.96;100987.30;95276;1180;81326;-65
2021/09/02 02:52:15;;;;;;;10.10;4.70;;;;;;;9.84;82.96;100982.33;95309;1180;99184;-66
2021/09/02 02:54:23;;;;;;;10.80;5.20;;;;;;;9.85;82.99;100983.00;95250;1180;88611;-67
2021/09/02 02:56:31;;;;;;;8.40;5.10;;;;;;;9.86;83.09;100977.60;95238;1180;93854;-65
2021/09/02 02:58:38;;;;;;;10.90;5.50;;;;;;;9.89;83.08;100976.45;95214;1180;78033;-62
2021/09/02 03:00:46;;;;;;;8.50;4.80;;;;;;;9.90;83.06;100972.34;95272;1180;79919;-60
2021/09/02 03:02:54;;;;;;;10.00;4.60;;;;;;;9.87;83.01;100969.08;95255;1180;98421;-60
2021/09/02 03:05:05;;;;;;;8.50;4.40;;;;;;;9.83;82.92;100972.24;95278;1180;87509;-61
2021/09/02 03:07:12;;;;;;;13.70;5.60;;;;;;;9.81;82.98;100969.88;95251;1180;94971;-61
2021/09/02 03:09:20;;;;;;;8.70;4.80;;;;;;;9.78;82.93;100970.05;95248;1180;78081;-62
2021/09/02 03:11:27;;;;;;;9.30;4.90;;;;;;;9.73;82.99;100971.21;95307;1180;81422;-62
2021/09/02 03:13:35;;;;;;;8.50;5.70;;;;;;;9.67;83.02;100972.80;95233;1180;98348;-61
2021/09/02 03:15:42;;;;;;;7.60;4.80;;;;;;;9.69;83.08;100968.48;95245;1180;87133;-61
2021/09/02 03:17:50;;;;;;;9.00;5.10;;;;;;;9.68;83.05;100972.26;95238;1181;92303;-61
2021/09/02 03:19:58;;;;;;;8.60;5.10;;;;;;;9.71;83.21;100975.90;95247;1180;78342;-64
2021/09/02 03:22:06;;;;;;;9.90;5.00;;;;;;;9.75;83.29;100977.60;95264;1180;81474;-65
2021/09/02 03:24:14;;;;;;;9.10;5.00;;;;;;;9.76;83.24;100981.86;95247;1180;99013;-62
2021/09/02 03:26:21;;;;;;;10.00;4.70;;;;;;;9.74;83.20;100984.77;95258;1180;88314;-62
2021/09/02 03:28:29;;;;;;;9.80;5.10;;;;;;;9.69;83.19;100991.28;95223;1180;94005;-66
2021/09/02 03:30:37;;;;;;;9.10;5.30;;;;;;;9.65;83.22;100994.61;95297;1180;80972;-64
2021/09/02 03:32:45;;;;;;;9.20;4.90;;;;;;;9.60;83.30;100994.20;95270;1180;81045;-64
2021/09/02 03:34:52;;;;;;;8.40;4.80;;;;;;;9.58;83.39;100995.91;95200;1180;97605;-62
2021/09/02 03:37:00;;;;;;;9.30;5.00;;;;;;;9.59;83.45;101000.50;95268;1180;86308;-60
2021/09/02 03:39:07;;;;;;;9.80;5.00;;;;;;;9.61;83.57;101004.55;95254;1180;94882;-65
2021/09/02 03:41:15;;;;;;;18.00;4.80;;;;;;;9.65;83.59;101007.83;95257;1180;80248;-66
2021/09/02 03:43:22;;;;;;;7.70;4.70;;;;;;;9.69;83.68;101008.91;95248;1180;82572;-60
2021/09/02 03:45:30;;;;;;;8.70;5.10;;;;;;;9.71;83.74;101008.45;95291;1180;98330;-61
2021/09/02 03:47:37;;;;;;;8.30;4.70;;;;;;;9.70;83.78;101007.83;95296;1180;88226;-61
2021/09/02 03:49:45;;;;;;;9.00;5.10;;;;;;;9.71;83.78;101005.55;95226;1180;94417;-61
2021/09/02 03:51:52;;;;;;;10.80;4.80;;;;;;;9.74;83.71;101008.13;95242;1180;80391;-62
2021/09/02 03:54:00;;;;;;;8.50;4.20;;;;;;;9.74;83.79;101013.13;95240;1180;80583;-62
2021/09/02 03:56:08;;;;;;;10.60;4.80;;;;;;;9.73;83.86;101009.89;95222;1180;96920;-60
2021/09/02 03:58:18;;;;;;;12.10;5.20;;;;;;;9.76;83.87;101011.50;95214;1180;87812;-64
2021/09/02 04:00:26;;;;;;;10.80;5.00;;;;;;;9.75;83.91;101010.96;95278;1180;93555;-64
2021/09/02 04:02:33;;;;;;;8.20;4.60;;;;;;;9.74;83.85;101012.27;95251;1180;80067;-64
2021/09/02 04:04:41;;;;;;;8.50;4.50;;;;;;;9.73;83.73;101015.25;95266;1180;80809;-65
2021/09/02 04:06:49;;;;;;;9.00;4.80;;;;;;;9.75;83.74;101017.84;95266;1180;97797;-66
2021/09/02 04:08:57;;;;;;;8.60;4.70;;;;;;;9.81;83.79;101018.49;95235;1180;88189;-66
2021/09/02 04:11:04;;;;;;;8.10;4.60;;;;;;;9.81;83.79;101017.78;95247;1180;94888;-66
2021/09/02 04:13:12;;;;;;;7.50;5.00;;;;;;;9.74;83.87;101015.56;95242;1180;77886;-61
2021/09/02 04:15:20;;;;;;;9.40;4.60;;;;;;;9.71;83.89;101012.08;95260;1180;81160;-61
2021/09/02 04:17:30;;;;;;;8.50;4.60;;;;;;;9.68;83.88;101011.71;95246;1180;98889;-64
2021/09/02 04:19:38;;;;;;;10.70;4.80;;;;;;;9.68;83.93;101007.76;95248;1180;88367;-61
2021/09/02 04:21:46;;;;;;;9.40;4.80;;;;;;;9.71;84.01;101010.09;95238;1180;93749;-62
2021/09/02 04:23:53;;;;;;;9.80;6.20;;;;;;;9.75;84.13;101004.09;95239;1180;78765;-68
2021/09/02 04:26:05;;;;;;;9.60;5.20;;;;;;;9.81;84.17;101005.33;95205;1180;81226;-63
2021/09/02 04:28:12;;;;;;;7.20;4.60;;;;;;;9.90;84.38;101001.14;95236;1180;98461;-60
2021/09/02 04:30:23;;;;;;;20.80;6.90;;;;;;;10.03;84.51;101003.71;95260;1180;88335;-62
2021/09/02 04:32:31;;;;;;;9.60;5.50;;;;;;;10.19;84.66;101001.46;95252;1180;92473;-61
2021/09/02 04:34:39;;;;;;;11.40;4.70;;;;;;;10.35;84.71;101001.46;95255;1181;80389;-63
2021/09/02 04:36:46;;;;;;;9.80;5.00;;;;;;;10.49;84.81;100999.08;95294;1180;81958;-63
2021/09/02 04:38:54;;;;;;;9.40;5.10;;;;;;;10.67;84.85;100996.35;95221;1180;98547;-63
2021/09/02 04:41:05;;;;;;;7.60;4.80;;;;;;;11.07;85.01;100997.44;95245;1180;86942;-62
2021/09/02 04:43:12;;;;;;;10.50;5.10;;;;;;;11.26;84.47;100997.35;95223;1180;94496;-65
2021/09/02 04:45:20;;;;;;;11.80;5.40;;;;;;;11.33;84.35;100996.05;95241;1180;79382;-65
2021/09/02 04:47:28;;;;;;;9.40;4.90;;;;;;;11.32;84.31;100998.05;95223;1180;80970;-65
2021/09/02 04:49:35;;;;;;;10.40;5.30;;;;;;;11.34;84.29;100994.38;95176;1180;98906;-63
2021/09/02 04:51:43;;;;;;;10.30;5.50;;;;;;;11.36;84.29;100991.54;95271;1180;88112;-61
2021/09/02 04:53:51;;;;;;;9.80;5.80;;;;;;;11.39;84.27;100987.86;95188;1180;94626;-61
2021/09/02 04:55:58;;;;;;;9.70;5.10;;;;;;;11.43;84.18;100981.43;95227;1180;81200;-61
2021/09/02 04:58:11;;;;;;;8.60;5.00;;;;;;;11.49;84.17;100977.16;95290;1180;81705;-64
2021/09/02 05:00:19;;;;;;;7.80;5.20;;;;;;;11.50;84.16;100978.86;95209;1180;98822;-64
2021/09/02 05:02:30;;;;;;;9.00;4.90;;;;;;;11.51;84.22;100977.45;95267;1180;88494;-64
2021/09/02 05:04:37;;;;;;;9.40;5.30;;;;;;;11.54;84.26;100977.63;95218;1180;94297;-61
2021/09/02 05:06:45;;;;;;;10.00;4.70;;;;;;;11.61;84.10;100987.02;95223;1180;82194;-61
2021/09/02 05:08:52;;;;;;;7.10;4.60;;;;;;;11.68;84.05;100987.72;95256;1181;83078;-65
2021/09/02 05:11:00;;;;;;;9.40;5.40;;;;;;;11.77;84.09;100991.27;95234;1180;97161;-65
2021/09/02 05:13:08;;;;;;;7.10;4.70;;;;;;;11.80;84.13;100990.12;95243;1180;88054;-65
2021/09/02 05:15:17;;;;;;;9.60;5.00;;;;;;;11.82;83.98;100989.42;95190;1180;94443;-66
2021/09/02 05:17:24;;;;;;;7.40;4.70;;;;;;;11.85;83.99;100991.95;95193;1180;81104;-65
2021/09/02 05:19:35;;;;;;;8.70;5.00;;;;;;;11.89;83.98;100992.39;95124;1181;81031;-66
2021/09/02 05:21:43;;;;;;;10.20;5.70;;;;;;;11.97;83.92;100995.69;95252;1180;99933;-66
2021/09/02 05:23:51;;;;;;;9.00;5.60;;;;;;;12.04;84.01;100993.66;95241;1181;88867;-62
2021/09/02 05:25:58;;;;;;;9.80;5.20;;;;;;;12.12;83.97;100997.98;95244;1180;94231;-61
2021/09/02 05:28:06;;;;;;;8.20;5.10;;;;;;;12.23;84.07;100998.98;95259;1180;79726;-65
2021/09/02 05:30:16;;;;;;;11.10;6.00;;;;;;;12.36;84.02;101001.41;95145;1181;80229;-66
2021/09/02 05:32:23;;;;;;;12.00;6.10;;;;;;;12.50;84.01;100995.43;95273;1180;99872;-64
2021/09/02 05:34:34;;;;;;;10.40;5.40;;;;;;;12.65;83.95;100981.56;95254;1180;86600;-65
2021/09/02 05:36:42;;;;;;;7.40;5.10;;;;;;;13.16;84.56;100975.36;95249;1180;94733;-67
2021/09/02 05:38:49;;;;;;;8.50;4.90;;;;;;;13.62;84.50;100971.66;95247;1180;78897;-65
2021/09/02 05:40:57;;;;;;;8.30;4.90;;;;;;;14.08;84.48;100970.90;95265;1181;81695;-65
2021/09/02 05:43:08;;;;;;;9.10;5.50;;;;;;;14.41;84.12;100975.70;95267;1180;97379;-62
2021/09/02 05:45:16;;;;;;;8.00;4.50;;;;;;;14.74;83.53;100984.01;95265;1180;86915;-61
2021/09/02 05:47:23;;;;;;;8.80;5.10;;;;;;;14.89;82.88;100981.90;95277;1180;94489;-61
2021/09/02 05:49:31;;;;;;;9.90;5.50;;;;;;;14.93;82.47;100980.73;95239;1180;79519;-66
2021/09/02 05:51:39;;;;;;;9.00;5.20;;;;;;;14.94;82.11;100978.56;95246;1180;81956;-66
2021/09/02 05:53:46;;;;;;;9.30;5.00;;;;;;;14.94;81.66;100977.15;95219;1180;97114;-66
2021/09/02 05:55:54;;;;;;;7.20;4.90;;;;;;;14.92;81.43;100983.20;95260;1181;86237;-63
2021/09/02 05:58:01;;;;;;;9.80;5.40;;;;;;;15.00;81.33;100975.81;95273;1180;94799;-61
2021/09/02 06:00:12;;;;;;;8.10;4.80;;;;;;;15.11;81.11;100975.98;95215;1180;78639;-61
2021/09/02 06:02:20;;;;;;;9.00;5.40;;;;;;;15.17;80.68;100979.65;95327;1180;81146;-60
2021/09/02 06:04:31;;;;;;;8.80;5.10;;;;;;;15.14;80.48;100977.14;95262;1180;99436;-66
2021/09/02 06:06:38;;;;;;;8.30;4.80;;;;;;;15.16;80.37;100979.19;95280;1180;87811;-66
2021/09/02 06:08:49;;;;;;;7.70;4.80;;;;;;;15.12;80.16;100982.69;95274;1180;93296;-65
2021/09/02 06:10:57;;;;;;;10.30;6.40;;;;;;;15.03;80.00;100981.91;95233;1180;79100;-65
2021/09/02 06:13:05;;;;;;;7.90;5.40;;;;;;;14.96;79.89;100976.10;95274;1180;80380;-67
2021/09/02 06:15:14;;;;;;;9.30;4.80;;;;;;;14.89;79.90;100981.06;95196;1180;99581;-65
2021/09/02 06:17:22;;;;;;;7.80;4.70;;;;;;;14.89;79.85;100977.16;95310;1181;87335;-66
2021/09/02 06:19:29;;;;;;;7.90;5.40;;;;;;;14.98;79.77;100976.19;95256;1180;94483;-65
2021/09/02 06:21:37;;;;;;;8.40;6.00;;;;;;;15.02;79.60;100978.93;95323;1180;77663;-66
2021/09/02 06:23:45;;;;;;;9.50;4.80;;;;;;;15.04;79.38;100976.05;95245;1180;82257;-65
2021/09/02 06:25:53;;;;;;;8.80;5.60;;;;;;;15.10;79.41;100972.27;95292;1180;98491;-63
2021/09/02 06:28:00;;;;;;;7.90;4.90;;;;;;;15.23;79.34;100974.69;95256;1180;88109;-64
2021/09/02 06:30:10;;;;;;;9.40;4.70;;;;;;;15.45;79.31;100975.75;95254;1180;93081;-64
2021/09/02 06:32:18;;;;;;;11.10;4.30;;;;;;;15.70;79.23;100977.34;95275;1180;82809;-63
2021/09/02 06:34:26;;;;;;;6.30;4.20;;;;;;;15.95;79.09;100976.26;95237;1180;80911;-63
2021/09/02 06:36:33;;;;;;;7.00;5.20;;;;;;;16.19;78.88;100981.70;95284;1180;99947;-64
2021/09/02 06:38:44;;;;;;;6.80;4.40;;;;;;;16.34;78.63;100981.16;95292;1180;86695;-62
2021/09/02 06:40:51;;;;;;;7.20;4.50;;;;;;;16.43;78.08;100986.31;95266;1180;95062;-63
2021/09/02 06:42:59;;;;;;;10.00;4.90;;;;;;;16.44;77.69;100989.58;95220;1180;78623;-62
2021/09/02 06:45:12;;;;;;;7.60;4.50;;;;;;;16.54;77.53;100985.50;95262;1180;81326;-62
2021/09/02 06:47:19;;;;;;;7.10;4.20;;;;;;;16.65;77.22;100970.80;95322;1180;97243;-61
2021/09/02 06:49:29;;;;;;;8.60;4.40;;;;;;;16.66;76.97;100967.40;95123;1182;87084;-62
2021/09/02 06:51:40;;;;;;;8.50;5.10;;;;;;;16.70;76.91;100969.55;95238;1180;92903;-61
2021/09/02 06:53:48;;;;;;;9.80;4.50;;;;;;;16.58;76.59;100974.14;95254;1180;78370;-62
2021/09/02 06:55:55;;;;;;;6.90;4.40;;;;;;;16.53;76.40;100975.55;95279;1180;80203;-62
2021/09/02 06:58:03;;;;;;;7.80;5.00;;;;;;;16.37;76.28;100978.14;95261;1180;98427;-62
2021/09/02 07:00:14;;;;;;;10.20;4.50;;;;;;;16.28;76.08;100970.15;95227;1180;87793;-61
2021/09/02 07:02:22;;;;;;;8.30;4.10;;;;;;;16.16;76.03;100966.84;95304;1180;92627;-63
2021/09/02 07:04:29;;;;;;;7.10;4.10;;;;;;;16.09;75.87;100958.89;95232;1180;80196;-62
2021/09/02 07:06:37;;;;;;;6.30;4.00;;;;;;;16.04;75.72;100960.83;95290;1180;81480;-62
2021/09/02 07:08:44;;;;;;;8.40;4.20;;;;;;;16.02;75.80;100967.70;95222;1180;98948;-62
2021/09/02 07:10:52;;;;;;;8.20;4.50;;;;;;;15.98;75.47;100978.95;95258;1180;88978;-64
2021/09/02 07:12:59;;;;;;;9.00;4.70;;;;;;;15.91;75.46;100988.76;95256;1180;94314;-63
2021/09/02 07:15:10;;;;;;;8.20;4.40;;;;;;;15.88;75.62;100986.66;95171;1182;79902;-66
2021/09/02 07:17:18;;;;;;;8.10;4.20;;;;;;;15.83;75.70;100991.18;95183;1182;82015;-64
2021/09/02 07:19:26;;;;;;;5.40;3.70;;;;;;;15.75;75.68;100994.66;95196;1180;98795;-64
2021/09/02 07:21:34;;;;;;;6.70;3.70;;;;;;;15.64;75.72;101000.30;95212;1180;88278;-66
2021/09/02 07:23:42;;;;;;;7.70;4.20;;;;;;;15.60;75.65;101006.08;95260;1180;93569;-66
2021/09/02 07:25:50;;;;;;;7.20;4.00;;;;;;;15.56;75.66;101014.09;95255;1180;79165;-64
2021/09/02 07:27:58;;;;;;;7.30;3.70;;;;;;;15.52;75.56;101016.67;95279;1180;82130;-62
2021/09/02 07:30:11;;;;;;;7.90;3.90;;;;;;;15.45;75.70;101015.33;95304;1180;98679;-62
2021/09/02 07:32:21;;;;;;;6.20;3.60;;;;;;;15.38;75.65;101013.13;95288;1180;87245;-62
2021/09/02 07:34:29;;;;;;;6.70;4.20;;;;;;;15.29;75.44;101016.65;95149;1181;94269;-62
2021/09/02 07:36:40;;;;;;;6.00;3.60;;;;;;;15.23;75.58;101030.20;95250;1180;80379;-61
2021/09/02 07:38:48;;;;;;;6.40;4.50;;;;;;;15.09;75.60;101034.05;95214;1180;81342;-61
2021/09/02 07:40:55;;;;;;;5.70;3.80;;;;;;;15.01;75.93;101039.00;95292;1180;96697;-61
2021/09/02 07:43:03;;;;;;;7.30;4.20;;;;;;;14.98;76.40;101039.36;95310;1180;87182;-58
2021/09/02 07:45:13;;;;;;;7.60;3.90;;;;;;;14.97;76.76;101037.93;95198;1180;94973;-63
2021/09/02 07:47:20;;;;;;;5.70;4.20;;;;;;;14.97;76.99;101031.73;95306;1180;80252;-60
2021/09/02 07:49:28;;;;;;;7.10;4.00;;;;;;;14.98;77.20;101038.77;95247;1180;82049;-62
2021/09/02 07:51:35;;;;;;;7.00;4.00;;;;;;;15.03;77.44;101034.86;95252;1180;98551;-61
2021/09/02 07:53:43;;;;;;;6.50;4.10;;;;;;;15.19;77.70;101033.77;95245;1180;86636;-62
2021/09/02 07:55:51;;;;;;;8.50;4.00;;;;;;;15.42;78.12;101033.59;95219;1180;94494;-62
2021/09/02 07:58:00;;;;;;;6.50;4.20;;;;;;;15.69;78.28;101031.04;95277;1180;79560;-62
2021/09/02 08:00:11;;;;;;;6.70;4.50;;;;;;;15.91;78.20;101028.41;95202;1180;81862;-61
2021/09/02 08:02:19;;;;;;;6.70;4.10;;;;;;;16.81;78.73;101028.39;95298;1180;97445;-60
2021/09/02 08:04:29;;;;;;;4.90;3.70;;;;;;;18.05;78.19;101021.64;95246;1180;88014;-60
2021/09/02 08:06:37;;;;;;;7.80;3.90;;;;;;;19.04;76.81;101018.56;95249;1180;92807;-61
2021/09/02 08:08:44;;;;;;;6.60;4.00;;;;;;;19.91;76.41;101016.48;95217;1180;79933;-62
2021/09/02 08:10:56;;;;;;;6.10;3.80;;;;;;;20.64;74.73;101017.33;95097;1182;80418;-62
2021/09/02 08:13:03;;;;;;;6.80;4.00;;;;;;;20.30;73.41;101017.05;95272;1180;98117;-61
2021/09/02 08:15:13;;;;;;;6.40;4.10;;;;;;;19.73;72.87;101020.29;95233;1180;87083;-60
2021/09/02 08:17:20;;;;;;;8.20;3.80;;;;;;;19.28;72.45;101024.71;95222;1180;94316;-61
2021/09/02 08:19:28;;;;;;;6.40;3.90;;;;;;;18.70;72.49;101023.30;95208;1180;78715;-62
2021/09/02 08:21:38;;;;;;;9.80;5.10;;;;;;;18.33;72.57;101020.89;95255;1180;81627;-64
2021/09/02 08:23:46;;;;;;;9.70;4.50;;;;;;;18.12;72.86;101019.24;95136;1181;97469;-59
2021/09/02 08:25:53;;;;;;;6.20;4.40;;;;;;;17.95;72.94;101021.19;95220;1180;87325;-61
2021/09/02 08:28:02;;;;;;;8.20;4.00;;;;;;;17.77;73.06;101031.09;95242;1180;94297;-62
2021/09/02 08:30:13;;;;;;;7.30;4.60;;;;;;;17.60;73.22;101032.55;95268;1180;80236;-60
2021/09/02 08:32:20;;;;;;;6.40;4.70;;;;;;;17.56;73.51;101032.87;95288;1180;81219;-59
2021/09/02 08:34:28;;;;;;;8.20;4.50;;;;;;;17.64;73.81;101034.54;95219;1180;99007;-64
2021/09/02 08:36:36;;;;;;;6.70;4.80;;;;;;;17.80;74.07;101029.38;95252;1180;87655;-64
2021/09/02 08:38:47;;;;;;;6.00;4.40;;;;;;;17.90;74.09;101036.03;95204;1180;93938;-60
2021/09/02 08:40:55;;;;;;;8.30;3.70;;;;;;;17.91;73.99;101029.50;95247;1180;81263;-60
2021/09/02 08:43:04;;;;;;;6.00;4.60;;;;;;;17.84;73.92;101034.23;95274;1180;80314;-62
2021/09/02 08:45:13;;;;;;;5.70;4.30;;;;;;;17.71;73.92;101038.07;95279;1180;99606;-59
2021/09/02 08:47:21;;;;;;;7.30;4.30;;;;;;;17.67;74.09;101040.36;95290;1180;86898;-60
2021/09/02 08:49:31;;;;;;;4.90;3.90;;;;;;;17.55;74.12;101040.85;95190;1180;94635;-61
2021/09/02 08:51:41;;;;;;;6.60;4.20;;;;;;;17.49;74.23;101040.48;95227;1180;78176;-59
2021/09/02 08:53:48;;;;;;;6.20;4.30;;;;;;;17.46;74.13;101039.86;95276;1180;80551;-65
2021/09/02 08:55:56;;;;;;;4.80;3.60;;;;;;;17.57;74.38;101043.52;95181;1180;98230;-64
2021/09/02 08:58:05;;;;;;;8.00;3.90;;;;;;;17.55;74.04;101047.26;95266;1180;87666;-61
2021/09/02 09:00:14;;;;;;;5.80;3.80;;;;;;;17.50;74.02;101053.42;95269;1180;93946;-59
2021/09/02 09:02:27;;;;;;;6.30;3.80;;;;;;;17.44;74.16;101062.69;95286;1180;79492;-65
2021/09/02 09:04:37;;;;;;;5.60;3.90;;;;;;;17.36;74.08;101056.42;95222;1180;82353;-65
2021/09/02 09:06:46;;;;;;;5.70;4.00;;;;;;;17.38;74.33;101065.58;95228;1180;97328;-66
2021/09/02 09:08:53;;;;;;;5.30;3.80;;;;;;;17.41;74.25;101066.66;95253;1180;86266;-59
2021/09/02 09:11:16;;;;;;;5.90;4.30;;;;;;;17.37;73.94;101070.88;95190;1180;94814;-60
2021/09/02 09:13:31;;;;;;;6.10;3.50;;;;;;;17.35;73.74;101072.98;95259;1180;79931;-61
2021/09/02 09:15:42;;;;;;;8.60;4.50;;;;;;;17.41;73.62;101077.87;95212;1180;80942;-61
2021/09/02 09:17:53;;;;;;;5.00;3.60;;;;;;;17.58;73.90;101074.32;95265;1180;98472;-61
2021/09/02 09:20:01;;;;;;;5.80;3.90;;;;;;;17.66;73.68;101076.68;95277;1180;87880;-62
2021/09/02 09:22:12;;;;;;;5.10;3.80;;;;;;;17.81;73.32;101073.60;95246;1180;96431;-58
2021/09/02 09:24:19;;;;;;;5.90;3.20;;;;;;;17.89;72.81;101078.30;95211;1180;79992;-61
2021/09/02 09:26:32;;;;;;;4.90;3.40;;;;;;;17.83;72.00;101082.21;95291;1180;80390;-60
2021/09/02 09:28:39;;;;;;;8.10;4.00;;;;;;;17.89;71.86;101078.55;95275;1180;98208;-65
2021/09/02 09:30:47;;;;;;;4.80;3.10;;;;;;;17.99;71.81;101081.02;95261;1180;86388;-63
2021/09/02 09:33:01;;;;;;;5.10;3.20;;;;;;;17.95;70.50;101082.84;95289;1180;93993;-64
2021/09/02 09:35:15;;;;;;;4.00;2.90;;;;;;;17.95;69.75;101082.13;95265;1180;79838;-61
2021/09/02 09:37:23;;;;;;;5.00;2.80;;;;;;;18.02;70.17;101079.64;95252;1180;82354;-59
2021/09/02 09:39:37;;;;;;;4.90;3.30;;;;;;;18.05;69.23;101077.86;95296;1180;99296;-68
2021/09/02 09:41:47;;;;;;;4.60;2.90;;;;;;;18.12;68.77;101080.09;95273;1180;88044;-64
2021/09/02 09:44:23;;;;;;;6.10;3.60;;;;;;;18.09;68.80;101072.44;95228;1180;93949;-64
2021/09/02 09:46:31;;;;;;;5.90;3.30;;;;;;;18.12;67.76;101072.89;95263;1180;80418;-66
2021/09/02 09:48:42;;;;;;;7.40;3.50;;;;;;;18.27;68.43;101074.20;95253;1180;79653;-65
2021/09/02 09:51:11;;;;;;;5.20;3.60;;;;;;;18.43;67.77;101073.34;95209;1180;99397;-64
2021/09/02 09:53:28;;;;;;;3.60;2.90;;;;;;;18.88;68.79;101070.44;95261;1180;88318;-64
2021/09/02 09:55:37;;;;;;;5.20;2.90;;;;;;;19.45;69.15;101072.16;95227;1180;94369;-64
2021/09/02 09:57:47;;;;;;;4.50;3.50;;;;;;;19.60;67.81;101070.88;95196;1180;78506;-63
2021/09/02 09:59:56;;;;;;;5.60;2.80;;;;;;;19.32;66.50;101074.46;95225;1180;81898;-63